createdAt,value
2022-10-18T00:02:57.210Z,33.20
2022-10-18T00:06:05.020Z,34.80
2022-10-18T00:09:11.652Z,33.20
2022-10-18T00:12:18.327Z,31.60
2022-10-18T00:15:25.084Z,35.00
2022-10-18T00:18:31.777Z,32.90
2022-10-18T00:21:38.490Z,33.20
2022-10-18T00:24:45.110Z,32.20
2022-10-18T00:27:52.992Z,34.20
2022-10-18T00:30:59.744Z,30.90
2022-10-18T00:34:09.071Z,35.30
2022-10-18T00:37:15.964Z,35.00
2022-10-18T00:40:22.493Z,31.20
2022-10-18T00:43:29.356Z,33.30
2022-10-18T00:46:37.867Z,37.00
2022-10-18T00:49:47.723Z,29.10
2022-10-18T00:53:01.759Z,32.40
2022-10-18T00:56:09.283Z,34.30
2022-10-18T00:59:17.928Z,36.20
2022-10-18T01:02:24.984Z,29.30
2022-10-18T01:05:31.723Z,31.70
2022-10-18T01:08:51.319Z,33.60
2022-10-18T01:12:14.263Z,32.70
2022-10-18T01:15:27.181Z,38.60
2022-10-18T01:18:41.393Z,34.80
2022-10-18T01:21:52.755Z,35.10
2022-10-18T01:25:07.935Z,32.50
2022-10-18T01:28:33.383Z,35.10
2022-10-18T01:31:46.291Z,34.40
2022-10-18T01:34:58.553Z,30.60
2022-10-18T01:38:11.453Z,35.30
2022-10-18T01:41:21.568Z,36.30
2022-10-18T01:44:30.710Z,32.40
2022-10-18T01:47:38.088Z,33.10
2022-10-18T01:50:44.925Z,35.10
2022-10-18T01:53:51.654Z,33.60
2022-10-18T01:57:03.913Z,35.70
2022-10-18T02:00:18.346Z,35.30
2022-10-18T02:03:28.712Z,34.40
2022-10-18T02:06:41.604Z,33.50
2022-10-18T02:09:52.933Z,32.30
2022-10-18T02:13:01.034Z,33.30
2022-10-18T02:16:11.564Z,34.60
2022-10-18T02:22:34.679Z,33.90
2022-10-18T02:25:41.933Z,35.90
2022-10-18T02:28:49.082Z,37.80
2022-10-18T02:32:01.946Z,35.40
2022-10-18T02:35:12.673Z,34.20
2022-10-18T02:38:24.908Z,33.70
2022-10-18T02:41:33.682Z,35.30
2022-10-18T02:44:43.326Z,39.50
2022-10-18T02:47:50.338Z,38.60
2022-10-18T02:50:56.888Z,37.80
2022-10-18T02:54:03.699Z,33.50
2022-10-18T02:57:10.449Z,36.30
2022-10-18T03:00:18.335Z,32.30
2022-10-18T03:03:25.162Z,36.40
2022-10-18T03:06:32.219Z,35.10
2022-10-18T03:09:41.081Z,32.20
2022-10-18T03:12:47.871Z,35.90
2022-10-18T03:15:54.573Z,35.50
2022-10-18T03:19:01.243Z,32.00
2022-10-18T03:22:08.003Z,35.00
2022-10-18T03:25:15.391Z,38.80
2022-10-18T03:28:22.059Z,32.40
2022-10-18T03:31:28.793Z,32.50
2022-10-18T03:34:35.376Z,39.10
2022-10-18T03:37:42.076Z,31.70
2022-10-18T03:40:48.665Z,35.50
2022-10-18T03:43:55.271Z,35.00
2022-10-18T03:47:01.906Z,34.50
2022-10-18T03:50:09.711Z,36.40
2022-10-18T03:53:16.761Z,35.50
2022-10-18T03:56:23.476Z,40.80
2022-10-18T03:59:30.084Z,34.50
2022-10-18T04:02:36.922Z,38.60
2022-10-18T04:05:43.650Z,36.50
2022-10-18T04:08:50.207Z,37.90
2022-10-18T04:11:56.865Z,36.10
2022-10-18T04:15:03.416Z,38.80
2022-10-18T04:18:10.303Z,42.20
2022-10-18T04:21:17.981Z,40.20
2022-10-18T04:24:24.782Z,40.30
2022-10-18T04:27:31.982Z,36.80
2022-10-18T04:30:39.184Z,38.80
2022-10-18T04:33:45.939Z,36.00
2022-10-18T04:36:52.634Z,40.90
2022-10-18T04:40:00.003Z,38.80
2022-10-18T04:43:06.754Z,33.00
2022-10-18T04:46:13.397Z,36.00
2022-10-18T04:49:20.091Z,35.10
2022-10-18T04:52:26.745Z,33.80
2022-10-18T04:55:34.549Z,35.80
2022-10-18T04:58:41.195Z,36.50
2022-10-18T05:01:48.988Z,37.30
2022-10-18T05:04:55.719Z,31.40
2022-10-18T05:08:02.270Z,43.00
2022-10-18T05:14:16.788Z,32.20
2022-10-18T05:17:23.406Z,36.80
2022-10-18T05:20:30.065Z,35.50
2022-10-18T05:23:36.740Z,34.50
2022-10-18T05:26:43.353Z,37.10
2022-10-18T05:29:50.102Z,38.20
2022-10-18T05:32:56.704Z,31.70
2022-10-18T05:36:03.274Z,35.30
2022-10-18T05:39:09.822Z,36.40
2022-10-18T05:42:16.343Z,33.30
2022-10-18T05:45:23.049Z,33.00
2022-10-18T05:48:29.642Z,31.50
2022-10-18T05:51:36.182Z,34.10
2022-10-18T05:54:43.078Z,34.10
2022-10-18T05:57:53.048Z,33.10
2022-10-18T06:01:02.381Z,35.80
2022-10-18T06:07:14.837Z,35.40
2022-10-18T06:10:21.481Z,41.10
2022-10-18T06:13:31.092Z,34.00
2022-10-18T06:16:39.109Z,32.50
2022-10-18T06:19:45.893Z,34.10
2022-10-18T06:22:54.675Z,35.50
2022-10-18T06:26:04.136Z,34.60
2022-10-18T06:32:16.326Z,36.30
2022-10-18T06:35:22.977Z,30.80
2022-10-18T06:38:30.742Z,31.90
2022-10-18T06:41:37.364Z,31.20
2022-10-18T06:44:55.095Z,30.50
2022-10-18T06:48:02.184Z,33.40
2022-10-18T06:51:09.855Z,35.20
2022-10-18T06:54:18.504Z,37.90
2022-10-18T06:57:25.683Z,36.90
2022-10-18T07:00:32.265Z,31.70
2022-10-18T07:03:39.074Z,31.90
2022-10-18T07:06:45.700Z,32.90
2022-10-18T07:09:52.241Z,33.80
2022-10-18T07:13:13.544Z,35.40
2022-10-18T07:16:25.648Z,36.10
2022-10-18T07:19:33.081Z,28.40
2022-10-18T07:22:39.989Z,31.20
2022-10-18T07:25:47.026Z,30.20
2022-10-18T07:28:58.009Z,30.40
2022-10-18T07:32:05.237Z,33.90
2022-10-18T07:38:24.110Z,32.20
2022-10-18T07:41:33.323Z,34.00
2022-10-18T07:47:46.153Z,31.10
2022-10-18T07:50:53.126Z,30.60
2022-10-18T07:54:00.211Z,30.30
2022-10-18T07:57:07.952Z,28.80
2022-10-18T08:00:16.229Z,25.20
2022-10-18T08:03:23.314Z,28.40
2022-10-18T08:06:30.155Z,24.90
2022-10-18T08:09:36.879Z,25.20
2022-10-18T08:12:43.620Z,29.30
2022-10-18T08:15:50.541Z,27.40
2022-10-18T08:18:58.282Z,27.20
2022-10-18T08:22:05.036Z,24.30
2022-10-18T08:25:12.392Z,23.40
2022-10-18T08:28:19.060Z,25.10
2022-10-18T08:31:25.931Z,27.60
2022-10-18T08:34:33.900Z,28.40
2022-10-18T08:37:45.491Z,27.70
2022-10-18T08:40:52.427Z,26.40
2022-10-18T08:44:10.329Z,29.30
2022-10-18T08:47:20.582Z,25.00
2022-10-18T08:50:34.945Z,24.20
2022-10-18T08:53:53.056Z,21.60
2022-10-18T08:57:02.673Z,24.20
2022-10-18T09:00:18.260Z,25.50
2022-10-18T09:03:45.182Z,24.30
2022-10-18T09:07:03.288Z,25.80
2022-10-18T09:10:22.514Z,23.70
2022-10-18T09:16:51.656Z,30.50
2022-10-18T09:20:12.186Z,27.30
2022-10-18T09:23:25.109Z,24.50
2022-10-18T09:26:40.713Z,26.10
2022-10-18T09:29:59.706Z,26.60
2022-10-18T09:33:24.596Z,25.10
2022-10-18T09:36:35.603Z,23.90
2022-10-18T09:39:43.577Z,29.40
2022-10-18T09:42:56.811Z,24.70
2022-10-18T09:46:04.883Z,25.70
2022-10-18T09:49:18.139Z,26.10
2022-10-18T09:52:31.679Z,27.50
2022-10-18T09:55:50.336Z,26.20
2022-10-18T09:58:57.152Z,26.40
2022-10-18T10:02:08.101Z,26.60
2022-10-18T10:05:17.107Z,25.70
2022-10-18T10:08:35.668Z,25.70
2022-10-18T10:11:47.883Z,30.00
2022-10-18T10:14:54.748Z,29.40
2022-10-18T10:18:04.993Z,26.80
2022-10-18T10:21:17.246Z,29.10
2022-10-18T10:24:44.246Z,26.40
2022-10-18T10:27:50.884Z,27.20
2022-10-18T10:31:17.291Z,27.30
2022-10-18T10:34:25.414Z,21.50
2022-10-18T10:37:38.868Z,28.10
2022-10-18T10:40:50.323Z,30.10
2022-10-18T10:43:57.430Z,27.60
2022-10-18T10:47:06.014Z,28.50
2022-10-18T10:50:14.960Z,27.40
2022-10-18T10:53:39.961Z,25.80
2022-10-18T10:56:56.730Z,28.20
2022-10-18T11:00:04.913Z,23.30
2022-10-18T11:03:28.947Z,23.70
2022-10-18T11:06:47.737Z,20.90
2022-10-18T11:10:02.454Z,24.50
2022-10-18T11:13:24.237Z,21.00
2022-10-18T11:16:37.023Z,20.20
2022-10-18T11:19:53.869Z,17.90
2022-10-18T11:23:04.787Z,15.40
2022-10-18T11:26:22.041Z,17.30
2022-10-18T11:29:56.087Z,15.90
2022-10-18T11:33:13.351Z,13.00
2022-10-18T11:36:26.374Z,10.80
2022-10-18T11:39:44.621Z,13.50
2022-10-18T11:42:59.915Z,11.60
2022-10-18T11:46:13.265Z,13.20
2022-10-18T11:49:44.994Z,12.40
2022-10-18T11:53:02.194Z,12.00
2022-10-18T11:56:17.531Z,13.80
2022-10-18T11:59:38.007Z,13.20
2022-10-18T12:02:58.981Z,13.50
2022-10-18T12:06:13.476Z,11.30
2022-10-18T12:09:28.841Z,12.20
2022-10-18T12:12:43.144Z,11.20
2022-10-18T12:15:50.976Z,12.10
2022-10-18T12:19:01.122Z,12.80
2022-10-18T12:22:19.911Z,13.70
2022-10-18T12:25:29.312Z,14.10
2022-10-18T12:28:48.339Z,14.10
2022-10-18T12:31:58.394Z,13.50
2022-10-18T12:35:13.025Z,14.80
2022-10-18T12:38:36.789Z,12.40
2022-10-18T12:41:48.203Z,12.90
2022-10-18T12:45:05.577Z,11.70
2022-10-18T12:48:30.976Z,14.00
2022-10-18T12:51:50.300Z,14.50
2022-10-18T12:55:22.583Z,15.10
2022-10-18T12:58:33.699Z,13.00
2022-10-18T13:02:20.700Z,15.90
2022-10-18T13:05:56.712Z,14.70
2022-10-18T13:09:23.550Z,11.40
2022-10-18T13:12:56.560Z,10.90
2022-10-18T13:16:12.948Z,13.20
2022-10-18T13:19:26.566Z,12.40
2022-10-18T13:22:49.488Z,14.80
2022-10-18T13:26:03.604Z,10.70
2022-10-18T13:29:31.992Z,12.10
2022-10-18T13:32:48.298Z,15.10
2022-10-18T13:35:57.940Z,13.50
2022-10-18T13:39:07.324Z,12.30
2022-10-18T13:42:34.792Z,12.50
2022-10-18T13:46:00.496Z,11.80
2022-10-18T13:49:29.136Z,12.90
2022-10-18T13:52:53.192Z,13.50
2022-10-18T13:56:47.301Z,14.20
2022-10-18T14:00:05.689Z,12.40
2022-10-18T14:07:06.139Z,17.00
2022-10-18T14:10:33.345Z,18.10
2022-10-18T14:13:53.177Z,18.70
2022-10-18T14:17:07.978Z,17.90
2022-10-18T14:20:29.416Z,21.10
2022-10-18T14:23:42.816Z,22.20
2022-10-18T14:27:11.340Z,19.00
2022-10-18T14:30:21.314Z,19.90
2022-10-18T14:33:36.854Z,22.80
2022-10-18T14:36:47.304Z,19.10
2022-10-18T14:39:54.239Z,19.60
2022-10-18T14:43:05.205Z,17.10
2022-10-18T14:46:17.756Z,17.80
2022-10-18T14:49:24.441Z,19.30
2022-10-18T14:52:35.671Z,18.40
2022-10-18T14:55:44.190Z,16.20
2022-10-18T14:58:52.326Z,21.00
2022-10-18T15:02:02.156Z,17.30
2022-10-18T15:05:19.374Z,22.60
2022-10-18T15:08:28.142Z,19.00
2022-10-18T15:11:35.046Z,19.50
2022-10-18T15:14:43.396Z,19.80
2022-10-18T15:17:52.562Z,17.80
2022-10-18T15:21:20.438Z,17.70
2022-10-18T15:24:34.632Z,17.70
2022-10-18T15:27:45.026Z,15.50
2022-10-18T15:30:51.864Z,15.70
2022-10-18T15:34:11.775Z,15.60
2022-10-18T15:37:30.206Z,13.80
2022-10-18T15:40:43.307Z,14.20
2022-10-18T15:43:50.263Z,13.60
2022-10-18T15:47:10.504Z,14.30
2022-10-18T15:50:41.130Z,13.50
2022-10-18T15:53:54.327Z,14.40
2022-10-18T15:57:07.978Z,13.10
2022-10-18T16:00:21.629Z,13.00
2022-10-18T16:03:29.339Z,12.50
2022-10-18T16:06:38.641Z,13.00
2022-10-18T16:09:45.570Z,13.20
2022-10-18T16:12:52.265Z,14.80
2022-10-18T16:16:00.305Z,13.80
2022-10-18T16:19:07.363Z,16.60
2022-10-18T16:22:16.180Z,15.00
2022-10-18T16:25:22.954Z,16.60
2022-10-18T16:28:31.892Z,14.80
2022-10-18T16:31:38.702Z,16.40
2022-10-18T16:34:45.450Z,16.80
2022-10-18T16:37:52.377Z,13.40
2022-10-18T16:40:59.682Z,15.10
2022-10-18T16:44:06.602Z,9.90
2022-10-18T16:47:13.950Z,10.70
2022-10-18T16:50:22.892Z,9.70
2022-10-18T16:53:29.942Z,10.10
2022-10-18T16:56:36.780Z,8.30
2022-10-18T16:59:43.526Z,9.30
2022-10-18T17:02:50.835Z,11.00
2022-10-18T17:05:57.845Z,9.30
2022-10-18T17:09:04.727Z,10.60
2022-10-18T17:12:11.380Z,9.30
2022-10-18T17:15:18.416Z,10.80
2022-10-18T17:18:27.591Z,12.20
2022-10-18T17:21:34.817Z,7.90
2022-10-18T17:24:41.459Z,12.10
2022-10-18T17:27:48.555Z,12.30
2022-10-18T17:30:55.260Z,11.10
2022-10-18T17:34:02.536Z,11.60
2022-10-18T17:37:11.542Z,13.10
2022-10-18T17:40:18.605Z,14.20
2022-10-18T17:43:25.203Z,14.10
2022-10-18T17:46:31.999Z,13.80
2022-10-18T17:49:38.713Z,11.30
2022-10-18T17:52:47.077Z,13.00
2022-10-18T17:56:02.333Z,11.80
2022-10-18T17:59:09.661Z,14.30
2022-10-18T18:02:16.583Z,15.40
2022-10-18T18:05:23.308Z,14.30
2022-10-18T18:08:30.811Z,14.80
2022-10-18T18:11:39.278Z,15.10
2022-10-18T18:14:46.120Z,18.10
2022-10-18T18:17:57.056Z,16.70
2022-10-18T18:21:04.522Z,15.60
2022-10-18T18:24:12.597Z,17.00
2022-10-18T18:27:19.258Z,14.40
2022-10-18T18:30:26.005Z,17.10
2022-10-18T18:33:34.816Z,17.60
2022-10-18T18:36:41.758Z,18.60
2022-10-18T18:39:48.702Z,16.70
2022-10-18T18:43:07.220Z,16.80
2022-10-18T18:46:22.868Z,18.20
2022-10-18T18:49:31.603Z,19.10
2022-10-18T18:52:38.375Z,15.70
2022-10-18T18:55:48.658Z,20.10
2022-10-18T18:58:56.853Z,15.80
2022-10-18T19:02:03.528Z,15.10
2022-10-18T19:05:10.740Z,19.30
2022-10-18T19:08:17.473Z,18.10
2022-10-18T19:11:25.037Z,19.30
2022-10-18T19:14:31.542Z,20.90
2022-10-18T19:17:38.348Z,18.00
2022-10-18T19:20:44.992Z,23.60
2022-10-18T19:23:52.051Z,20.00
2022-10-18T19:27:00.805Z,18.10
2022-10-18T19:30:09.873Z,20.30
2022-10-18T19:33:35.393Z,19.00
2022-10-18T19:36:50.095Z,20.60
2022-10-18T19:39:56.750Z,19.50
2022-10-18T19:43:03.363Z,21.30
2022-10-18T19:46:11.216Z,21.10
2022-10-18T19:49:18.608Z,19.30
2022-10-18T19:52:25.235Z,19.10
2022-10-18T19:55:32.019Z,20.40
2022-10-18T19:58:38.640Z,20.30
2022-10-18T20:01:46.396Z,23.60
2022-10-18T20:04:53.132Z,22.00
2022-10-18T20:07:59.966Z,20.80
2022-10-18T20:11:09.020Z,20.50
2022-10-18T20:14:15.675Z,22.10
2022-10-18T20:17:22.352Z,22.10
2022-10-18T20:20:28.905Z,23.40
2022-10-18T20:23:39.079Z,21.70
2022-10-18T20:26:45.721Z,22.60
2022-10-18T20:29:52.496Z,21.70
2022-10-18T20:32:59.259Z,20.10
2022-10-18T20:36:08.367Z,21.80
2022-10-18T20:39:15.053Z,19.80
2022-10-18T20:42:21.719Z,19.20
2022-10-18T20:45:28.450Z,22.60
2022-10-18T20:48:35.910Z,22.80
2022-10-18T20:51:42.770Z,23.40
2022-10-18T20:54:49.561Z,21.40
2022-10-18T20:57:56.317Z,22.50
2022-10-18T21:01:09.658Z,23.30
2022-10-18T21:04:16.387Z,23.70
2022-10-18T21:07:23.032Z,23.80
2022-10-18T21:10:29.643Z,21.70
2022-10-18T21:13:36.598Z,24.70
2022-10-18T21:16:43.973Z,26.30
2022-10-18T21:19:50.614Z,22.90
2022-10-18T21:22:57.521Z,20.40
2022-10-18T21:26:04.349Z,24.90
2022-10-18T21:29:12.403Z,24.00
2022-10-18T21:32:19.235Z,22.30
2022-10-18T21:35:25.782Z,24.10
2022-10-18T21:38:32.611Z,24.30
2022-10-18T21:41:39.187Z,21.70
2022-10-18T21:44:46.011Z,27.60
2022-10-18T21:47:52.642Z,21.40
2022-10-18T21:51:02.724Z,23.50
2022-10-18T21:54:12.567Z,21.70
2022-10-18T21:57:19.262Z,21.90
2022-10-18T22:00:25.896Z,23.30
2022-10-18T22:03:32.649Z,21.20
2022-10-18T22:06:39.261Z,20.50
2022-10-18T22:09:46.051Z,21.90
2022-10-18T22:12:52.632Z,24.00
2022-10-18T22:16:03.253Z,19.90
2022-10-18T22:19:10.198Z,22.70
2022-10-18T22:22:16.820Z,23.40
2022-10-18T22:25:23.533Z,20.60
2022-10-18T22:28:30.283Z,20.80
2022-10-18T22:31:39.543Z,24.30
2022-10-18T22:34:46.200Z,24.90
2022-10-18T22:37:56.030Z,21.40
2022-10-18T22:41:06.395Z,19.60
2022-10-18T22:44:15.697Z,21.60
2022-10-18T22:47:22.409Z,22.40
2022-10-18T22:50:29.038Z,22.90
2022-10-18T22:53:36.261Z,23.70
2022-10-18T22:56:42.949Z,22.50
2022-10-18T22:59:49.474Z,21.10
2022-10-18T23:02:56.138Z,22.80
2022-10-18T23:06:03.272Z,25.00
2022-10-18T23:09:11.725Z,28.80
2022-10-18T23:12:18.580Z,23.00
2022-10-18T23:15:25.179Z,22.90
2022-10-18T23:18:32.376Z,24.60
2022-10-18T23:21:39.039Z,26.20
2022-10-18T23:24:45.589Z,24.20
2022-10-18T23:27:52.357Z,29.00
2022-10-18T23:30:59.067Z,24.80
2022-10-18T23:34:07.026Z,25.00
2022-10-18T23:37:13.639Z,24.80
2022-10-18T23:40:20.484Z,25.60
2022-10-18T23:43:27.235Z,24.10
2022-10-18T23:46:33.891Z,22.70
2022-10-18T23:49:40.459Z,21.90
2022-10-18T23:52:47.085Z,22.30
2022-10-18T23:55:57.987Z,25.30
2022-10-18T23:59:04.737Z,23.10
